createdAt,value
2022-10-11T00:00:13.236Z,91.88
2022-10-11T00:02:40.270Z,91.68
2022-10-11T00:05:08.341Z,91.66
2022-10-11T00:07:36.886Z,91.82
2022-10-11T00:10:16.229Z,91.56
2022-10-11T00:12:54.020Z,91.89
2022-10-11T00:15:32.695Z,91.76
2022-10-11T00:18:10.328Z,91.93
2022-10-11T00:20:48.538Z,91.60
2022-10-11T00:23:26.775Z,91.08
2022-10-11T00:26:07.537Z,91.16
2022-10-11T00:28:46.348Z,90.89
2022-10-11T00:31:24.684Z,90.86
2022-10-11T00:34:03.657Z,90.95
2022-10-11T00:36:42.687Z,90.88
2022-10-11T00:39:21.127Z,90.98
2022-10-11T00:42:00.544Z,90.74
2022-10-11T00:44:40.952Z,90.95
2022-10-11T00:47:21.749Z,90.63
2022-10-11T00:50:01.800Z,90.70
2022-10-11T00:52:48.162Z,90.74
2022-10-11T00:55:31.423Z,90.51
2022-10-11T00:58:09.571Z,90.78
2022-10-11T01:00:47.435Z,90.89
2022-10-11T01:03:28.622Z,91.09
2022-10-11T01:06:07.604Z,91.18
2022-10-11T01:08:58.412Z,90.81
2022-10-11T01:11:41.441Z,90.69
2022-10-11T01:14:42.755Z,90.94
2022-10-11T01:17:40.560Z,91.00
2022-10-11T01:20:30.809Z,91.05
2022-10-11T01:23:27.318Z,90.91
2022-10-11T01:26:22.037Z,91.28
2022-10-11T01:29:45.066Z,90.85
2022-10-11T01:32:30.949Z,91.13
2022-10-11T01:35:15.309Z,91.04
2022-10-11T01:38:08.421Z,91.01
2022-10-11T01:40:55.212Z,90.93
2022-10-11T01:43:35.155Z,91.25
2022-10-11T01:46:13.670Z,90.74
2022-10-11T01:48:58.431Z,91.07
2022-10-11T01:51:45.104Z,90.97
2022-10-11T01:54:56.457Z,91.26
2022-10-11T01:58:12.649Z,91.35
2022-10-11T02:01:01.461Z,91.08
2022-10-11T02:03:48.270Z,91.20
2022-10-11T02:06:34.426Z,91.49
2022-10-11T02:09:15.077Z,91.62
2022-10-11T02:11:56.713Z,91.31
2022-10-11T02:14:40.567Z,91.41
2022-10-11T02:17:23.185Z,91.29
2022-10-11T02:20:06.587Z,91.49
2022-10-11T02:22:49.266Z,91.30
2022-10-11T02:25:34.864Z,90.91
2022-10-11T02:28:18.896Z,91.32
2022-10-11T02:31:01.885Z,91.23
2022-10-11T02:34:16.728Z,91.49
2022-10-11T02:37:10.689Z,91.60
2022-10-11T02:39:55.543Z,90.94
2022-10-11T02:42:40.516Z,91.39
2022-10-11T02:45:25.575Z,91.32
2022-10-11T02:48:06.238Z,91.05
2022-10-11T02:50:45.073Z,91.02
2022-10-11T02:53:24.393Z,91.16
2022-10-11T02:56:03.097Z,91.28
2022-10-11T02:58:41.100Z,91.36
2022-10-11T03:01:20.390Z,91.39
2022-10-11T03:03:58.998Z,91.49
2022-10-11T03:06:37.220Z,91.74
2022-10-11T03:09:15.444Z,91.75
2022-10-11T03:11:53.855Z,91.45
2022-10-11T03:14:31.845Z,91.75
2022-10-11T03:17:34.647Z,91.89
2022-10-11T03:20:07.965Z,91.83
2022-10-11T03:22:45.677Z,91.51
2022-10-11T03:25:23.845Z,91.64
2022-10-11T03:28:02.120Z,91.64
2022-10-11T03:30:40.275Z,91.60
2022-10-11T03:33:19.353Z,91.57
2022-10-11T03:35:58.248Z,91.78
2022-10-11T03:38:36.500Z,91.63
2022-10-11T03:41:14.672Z,91.47
2022-10-11T03:43:52.825Z,91.54
2022-10-11T03:46:31.566Z,91.55
2022-10-11T03:49:09.344Z,91.40
2022-10-11T03:51:47.416Z,91.84
2022-10-11T03:54:25.980Z,91.95
2022-10-11T03:57:04.129Z,91.46
2022-10-11T03:59:42.147Z,91.71
2022-10-11T04:02:21.399Z,91.83
2022-10-11T04:05:00.144Z,92.09
2022-10-11T04:07:39.486Z,91.97
2022-10-11T04:10:18.387Z,91.67
2022-10-11T04:12:56.236Z,91.88
2022-10-11T04:15:34.577Z,91.61
2022-10-11T04:18:12.737Z,91.41
2022-10-11T04:20:51.198Z,91.80
2022-10-11T04:23:31.512Z,91.42
2022-10-11T04:26:09.161Z,91.51
2022-10-11T04:28:47.141Z,91.48
2022-10-11T04:31:25.328Z,91.61
2022-10-11T04:34:03.760Z,91.26
2022-10-11T04:36:44.347Z,91.06
2022-10-11T04:39:37.197Z,91.56
2022-10-11T04:42:14.670Z,91.83
2022-10-11T04:44:52.832Z,91.93
2022-10-11T04:47:31.285Z,91.64
2022-10-11T04:50:09.302Z,91.94
2022-10-11T04:52:47.512Z,91.54
2022-10-11T04:55:27.553Z,91.16
2022-10-11T04:58:05.107Z,91.44
2022-10-11T05:00:43.783Z,91.28
2022-10-11T05:03:22.011Z,90.97
2022-10-11T05:06:05.162Z,90.46
2022-10-11T05:08:46.691Z,90.20
2022-10-11T05:11:26.615Z,90.25
2022-10-11T05:14:05.115Z,90.24
2022-10-11T05:16:43.456Z,90.10
2022-10-11T05:19:22.288Z,89.43
2022-10-11T05:22:00.467Z,89.38
2022-10-11T05:24:38.741Z,88.92
2022-10-11T05:27:16.880Z,88.66
2022-10-11T05:29:55.210Z,88.71
2022-10-11T05:32:33.619Z,88.43
2022-10-11T05:35:11.524Z,88.08
2022-10-11T05:37:49.774Z,87.76
2022-10-11T05:40:27.937Z,87.43
2022-10-11T05:43:06.590Z,86.77
2022-10-11T05:45:45.061Z,86.29
2022-10-11T05:48:24.151Z,82.47
2022-10-11T05:51:05.291Z,76.72
2022-10-11T05:53:43.785Z,72.64
2022-10-11T05:56:24.711Z,68.35
2022-10-11T05:59:04.444Z,65.65
2022-10-11T06:01:43.216Z,61.52
2022-10-11T06:04:21.561Z,59.07
2022-10-11T06:06:59.541Z,57.46
2022-10-11T06:09:37.921Z,57.53
2022-10-11T06:12:16.336Z,56.64
2022-10-11T06:15:11.691Z,54.36
2022-10-11T06:18:09.495Z,53.25
2022-10-11T06:21:13.827Z,51.93
2022-10-11T06:24:07.034Z,49.92
2022-10-11T06:27:02.619Z,48.18
2022-10-11T06:29:54.999Z,47.49
2022-10-11T06:32:51.091Z,47.23
2022-10-11T06:35:43.221Z,47.89
2022-10-11T06:38:44.502Z,47.41
2022-10-11T06:41:40.251Z,47.16
2022-10-11T06:44:41.161Z,46.55
2022-10-11T06:47:32.962Z,46.45
2022-10-11T06:50:54.461Z,46.33
2022-10-11T06:53:40.711Z,45.37
2022-10-11T06:56:33.075Z,44.89
2022-10-11T06:59:33.705Z,43.97
2022-10-11T07:02:25.334Z,43.56
2022-10-11T07:05:17.592Z,43.03
2022-10-11T07:08:13.300Z,42.55
2022-10-11T07:11:14.408Z,40.18
2022-10-11T07:14:15.208Z,38.67
2022-10-11T07:17:19.522Z,38.46
2022-10-11T07:20:15.023Z,38.66
2022-10-11T07:23:07.245Z,38.29
2022-10-11T07:26:02.270Z,37.60
2022-10-11T07:28:57.835Z,38.30
2022-10-11T07:32:04.980Z,38.13
2022-10-11T07:35:00.522Z,37.32
2022-10-11T07:37:56.158Z,36.91
2022-10-11T07:40:47.659Z,37.45
2022-10-11T07:43:39.578Z,38.92
2022-10-11T07:46:34.243Z,38.47
2022-10-11T07:49:38.241Z,38.84
2022-10-11T07:52:39.074Z,38.31
2022-10-11T07:55:40.259Z,38.24
2022-10-11T07:58:32.274Z,38.95
2022-10-11T08:01:27.693Z,38.59
2022-10-11T08:04:19.489Z,38.69
2022-10-11T08:07:13.417Z,37.95
2022-10-11T08:10:26.379Z,36.73
2022-10-11T08:13:21.468Z,37.02
2022-10-11T08:16:20.015Z,37.79
2022-10-11T08:19:21.317Z,38.63
2022-10-11T08:22:15.694Z,37.85
2022-10-11T08:25:11.484Z,36.40
2022-10-11T08:28:07.919Z,35.83
2022-10-11T08:31:03.796Z,34.36
2022-10-11T08:33:59.812Z,33.35
2022-10-11T08:36:57.823Z,31.63
2022-10-11T08:39:50.205Z,30.94
2022-10-11T08:43:05.945Z,31.44
2022-10-11T08:46:03.166Z,29.11
2022-10-11T08:48:35.994Z,28.53
2022-10-11T08:51:13.708Z,26.29
2022-10-11T08:54:08.170Z,24.13
2022-10-11T08:56:40.041Z,23.77
2022-10-11T08:59:13.028Z,22.42
2022-10-11T09:01:52.664Z,21.67
2022-10-11T09:04:20.074Z,21.92
2022-10-11T09:07:07.729Z,20.14
2022-10-11T09:10:12.763Z,19.54
2022-10-11T09:13:13.117Z,19.43
2022-10-11T09:16:11.128Z,20.26
2022-10-11T09:19:03.978Z,19.42
2022-10-11T09:21:36.893Z,18.39
2022-10-11T09:24:25.530Z,18.73
2022-10-11T09:26:57.297Z,18.29
2022-10-11T09:29:30.142Z,17.92
2022-10-11T09:31:58.420Z,17.77
2022-10-11T09:34:32.423Z,17.59
2022-10-11T09:37:03.035Z,17.67
2022-10-11T09:40:07.318Z,17.74
2022-10-11T09:42:34.443Z,17.75
2022-10-11T09:45:02.297Z,17.16
2022-10-11T09:47:33.164Z,17.40
2022-10-11T09:50:16.655Z,17.45
2022-10-11T09:53:09.709Z,16.94
2022-10-11T09:55:54.150Z,16.73
2022-10-11T09:58:31.160Z,17.27
2022-10-11T10:01:08.597Z,19.18
2022-10-11T10:03:43.856Z,20.77
2022-10-11T10:06:22.616Z,22.83
2022-10-11T10:08:50.758Z,24.10
2022-10-11T10:11:19.482Z,23.25
2022-10-11T10:13:56.958Z,23.45
2022-10-11T10:16:24.019Z,24.65
2022-10-11T10:18:57.271Z,25.74
2022-10-11T10:21:37.431Z,26.97
2022-10-11T10:24:33.597Z,29.41
2022-10-11T10:27:21.295Z,29.80
2022-10-11T10:30:10.232Z,30.50
2022-10-11T10:33:03.797Z,32.06
2022-10-11T10:35:45.652Z,33.37
2022-10-11T10:38:12.675Z,33.03
2022-10-11T10:40:47.287Z,33.49
2022-10-11T10:43:20.335Z,35.95
2022-10-11T10:45:57.893Z,35.18
2022-10-11T10:49:01.694Z,35.16
2022-10-11T10:51:45.344Z,35.40
2022-10-11T10:54:21.687Z,35.67
2022-10-11T10:56:55.424Z,35.81
2022-10-11T10:59:28.263Z,35.20
2022-10-11T11:02:15.922Z,35.31
2022-10-11T11:05:05.393Z,36.08
2022-10-11T11:07:46.042Z,35.27
2022-10-11T11:10:21.970Z,35.14
2022-10-11T11:13:26.461Z,36.38
2022-10-11T11:16:04.833Z,35.72
2022-10-11T11:18:34.942Z,35.95
2022-10-11T11:21:04.778Z,36.30
2022-10-11T11:23:43.314Z,36.76
2022-10-11T11:26:30.874Z,36.98
2022-10-11T11:29:15.018Z,37.62
2022-10-11T11:32:09.810Z,38.15
2022-10-11T11:34:47.962Z,38.09
2022-10-11T11:37:27.156Z,37.66
2022-10-11T11:39:59.212Z,36.95
2022-10-11T11:42:37.189Z,36.74
2022-10-11T11:45:27.496Z,37.42
2022-10-11T11:48:04.935Z,36.99
2022-10-11T11:50:42.176Z,37.25
2022-10-11T11:53:18.876Z,37.17
2022-10-11T11:56:08.686Z,36.72
2022-10-11T11:58:59.708Z,37.00
2022-10-11T12:02:07.063Z,37.53
2022-10-11T12:04:40.539Z,38.04
2022-10-11T12:07:17.675Z,37.47
2022-10-11T12:09:51.828Z,36.81
2022-10-11T12:12:37.155Z,37.09
2022-10-11T12:15:10.303Z,37.25
2022-10-11T12:18:01.800Z,38.25
2022-10-11T12:20:40.946Z,37.78
2022-10-11T12:23:29.249Z,38.76
2022-10-11T12:26:33.493Z,39.48
2022-10-11T12:29:06.093Z,39.63
2022-10-11T12:31:35.951Z,39.47
2022-10-11T12:34:17.142Z,39.14
2022-10-11T12:36:47.095Z,39.49
2022-10-11T12:39:20.160Z,39.86
2022-10-11T12:41:55.679Z,39.69
2022-10-11T12:44:24.218Z,39.99
2022-10-11T12:46:51.084Z,40.00
2022-10-11T12:49:20.888Z,40.52
2022-10-11T12:52:13.804Z,40.68
2022-10-11T12:54:59.463Z,40.56
2022-10-11T12:57:46.519Z,40.45
2022-10-11T13:00:39.992Z,39.80
2022-10-11T13:03:32.810Z,39.77
2022-10-11T13:06:02.073Z,40.16
2022-10-11T13:08:38.034Z,39.72
2022-10-11T13:11:08.893Z,40.08
2022-10-11T13:13:51.032Z,40.17
2022-10-11T13:16:21.497Z,40.65
2022-10-11T13:18:50.759Z,41.26
2022-10-11T13:21:31.150Z,41.36
2022-10-11T13:24:19.757Z,40.36
2022-10-11T13:26:49.111Z,40.65
2022-10-11T13:29:38.154Z,40.70
2022-10-11T13:32:13.678Z,40.12
2022-10-11T13:34:41.856Z,41.00
2022-10-11T13:37:17.426Z,41.80
2022-10-11T13:39:45.808Z,41.60
2022-10-11T13:42:16.046Z,41.54
2022-10-11T13:44:44.583Z,41.43
2022-10-11T13:47:14.786Z,41.40
2022-10-11T13:49:53.626Z,41.18
2022-10-11T13:52:24.059Z,42.03
2022-10-11T13:54:59.079Z,42.34
2022-10-11T13:57:40.771Z,41.94
2022-10-11T14:00:10.472Z,42.01
2022-10-11T14:02:39.598Z,41.77
2022-10-11T14:05:06.813Z,41.65
2022-10-11T14:07:38.532Z,42.24
2022-10-11T14:10:07.018Z,42.40
2022-10-11T14:12:44.452Z,42.45
2022-10-11T14:15:35.904Z,42.94
2022-10-11T14:18:33.792Z,44.20
2022-10-11T14:21:19.130Z,44.29
2022-10-11T14:23:53.397Z,44.78
2022-10-11T14:26:21.770Z,45.79
2022-10-11T14:29:00.738Z,46.81
2022-10-11T14:31:30.385Z,46.08
2022-10-11T14:33:58.364Z,46.43
2022-10-11T14:36:26.147Z,47.05
2022-10-11T14:38:53.690Z,47.62
2022-10-11T14:41:20.920Z,48.13
2022-10-11T14:43:47.856Z,47.96
2022-10-11T14:46:24.967Z,48.63
2022-10-11T14:48:56.048Z,48.97
2022-10-11T14:51:29.277Z,48.75
2022-10-11T14:53:56.278Z,48.94
2022-10-11T14:56:23.751Z,49.74
2022-10-11T14:58:51.010Z,49.96
2022-10-11T15:01:18.168Z,50.84
2022-10-11T15:03:45.310Z,52.09
2022-10-11T15:06:22.900Z,52.26
2022-10-11T15:08:50.459Z,51.63
2022-10-11T15:11:19.125Z,52.44
2022-10-11T15:13:46.566Z,53.17
2022-10-11T15:16:15.464Z,52.82
2022-10-11T15:18:42.847Z,53.44
2022-10-11T15:21:16.462Z,54.54
2022-10-11T15:23:43.372Z,53.90
2022-10-11T15:26:14.958Z,53.60
2022-10-11T15:28:43.002Z,53.68
2022-10-11T15:31:11.142Z,54.75
2022-10-11T15:33:39.027Z,55.23
2022-10-11T15:36:08.584Z,54.89
2022-10-11T15:38:36.192Z,55.99
2022-10-11T15:41:03.572Z,56.45
2022-10-11T15:43:30.752Z,56.68
2022-10-11T15:45:58.100Z,56.73
2022-10-11T15:48:26.987Z,57.86
2022-10-11T15:50:54.459Z,57.54
2022-10-11T15:53:25.906Z,58.77
2022-10-11T15:55:54.547Z,59.18
2022-10-11T15:58:28.346Z,59.98
2022-10-11T16:00:57.782Z,59.16
2022-10-11T16:03:27.628Z,59.35
2022-10-11T16:05:55.719Z,59.07
2022-10-11T16:08:23.539Z,59.68
2022-10-11T16:10:51.539Z,60.59
2022-10-11T16:13:18.614Z,61.00
2022-10-11T16:15:46.218Z,60.63
2022-10-11T16:18:14.928Z,61.08
2022-10-11T16:20:44.747Z,61.59
2022-10-11T16:23:12.185Z,61.54
2022-10-11T16:25:40.033Z,61.71
2022-10-11T16:28:08.180Z,61.22
2022-10-11T16:30:39.069Z,61.93
2022-10-11T16:33:06.113Z,63.72
2022-10-11T16:35:33.194Z,62.84
2022-10-11T16:38:01.051Z,63.88
2022-10-11T16:40:29.964Z,63.97
2022-10-11T16:42:56.888Z,64.48
2022-10-11T16:45:24.156Z,64.35
2022-10-11T16:47:51.110Z,64.50
2022-10-11T16:50:18.737Z,65.40
2022-10-11T16:52:45.813Z,65.87
2022-10-11T16:55:12.759Z,65.65
2022-10-11T16:57:39.854Z,66.08
2022-10-11T17:00:10.696Z,67.01
2022-10-11T17:02:37.768Z,67.43
2022-10-11T17:05:05.044Z,67.70
2022-10-11T17:07:32.390Z,68.23
2022-10-11T17:10:01.187Z,69.95
2022-10-11T17:12:28.327Z,68.77
2022-10-11T17:14:55.564Z,68.29
2022-10-11T17:17:22.521Z,68.77
2022-10-11T17:19:49.588Z,68.73
2022-10-11T17:22:19.369Z,69.44
2022-10-11T17:24:46.623Z,69.17
2022-10-11T17:27:13.770Z,70.04
2022-10-11T17:29:41.199Z,70.27
2022-10-11T17:32:08.565Z,70.62
2022-10-11T17:34:35.694Z,70.58
2022-10-11T17:37:02.719Z,70.75
2022-10-11T17:39:29.676Z,71.12
2022-10-11T17:41:56.681Z,71.74
2022-10-11T17:44:23.647Z,72.14
2022-10-11T17:46:50.641Z,72.79
2022-10-11T17:49:17.748Z,73.13
2022-10-11T17:51:44.979Z,73.05
2022-10-11T17:54:13.172Z,73.06
2022-10-11T17:56:41.807Z,73.68
2022-10-11T17:59:18.737Z,74.47
2022-10-11T18:01:45.680Z,74.59
2022-10-11T18:04:16.798Z,74.68
2022-10-11T18:06:46.252Z,75.02
2022-10-11T18:09:15.264Z,75.66
2022-10-11T18:11:43.157Z,75.80
2022-10-11T18:14:10.162Z,75.24
2022-10-11T18:16:38.097Z,75.85
2022-10-11T18:19:08.309Z,76.40
2022-10-11T18:21:36.788Z,76.17
2022-10-11T18:24:12.771Z,77.14
2022-10-11T18:26:39.943Z,76.85
2022-10-11T18:29:07.428Z,77.44
2022-10-11T18:31:35.340Z,77.63
2022-10-11T18:34:04.500Z,77.52
2022-10-11T18:36:32.599Z,77.36
2022-10-11T18:39:06.186Z,77.41
2022-10-11T18:41:35.365Z,77.57
2022-10-11T18:44:06.296Z,77.57
2022-10-11T18:46:34.238Z,77.95
2022-10-11T18:49:02.271Z,77.68
2022-10-11T18:51:34.837Z,78.16
2022-10-11T18:54:02.291Z,78.77
2022-10-11T18:56:30.755Z,78.95
2022-10-11T18:58:59.007Z,79.34
2022-10-11T19:01:32.371Z,79.70
2022-10-11T19:04:01.941Z,79.86
2022-10-11T19:06:34.616Z,79.88
2022-10-11T19:09:09.360Z,80.23
2022-10-11T19:11:36.889Z,80.30
2022-10-11T19:14:11.115Z,80.65
2022-10-11T19:16:40.598Z,81.33
2022-10-11T19:19:09.424Z,81.32
2022-10-11T19:21:36.284Z,81.29
2022-10-11T19:24:04.903Z,82.54
2022-10-11T19:26:37.169Z,82.29
2022-10-11T19:29:08.178Z,82.52
2022-10-11T19:31:37.163Z,82.79
2022-10-11T19:34:04.089Z,82.93
2022-10-11T19:36:36.308Z,83.48
2022-10-11T19:39:05.310Z,83.30
2022-10-11T19:41:32.316Z,83.63
2022-10-11T19:43:59.707Z,84.13
2022-10-11T19:46:49.843Z,84.65
2022-10-11T19:49:17.659Z,84.62
2022-10-11T19:51:45.078Z,84.81
2022-10-11T19:54:14.024Z,84.97
2022-10-11T19:56:42.516Z,85.42
2022-10-11T19:59:11.194Z,85.78
2022-10-11T20:01:38.406Z,85.83
2022-10-11T20:04:07.616Z,86.26
2022-10-11T20:06:38.512Z,86.56
2022-10-11T20:09:28.525Z,86.70
2022-10-11T20:11:56.885Z,86.71
2022-10-11T20:14:23.961Z,86.44
2022-10-11T20:16:51.295Z,86.93
2022-10-11T20:19:18.890Z,87.46
2022-10-11T20:21:46.104Z,87.29
2022-10-11T20:24:13.268Z,87.40
2022-10-11T20:26:40.107Z,87.33
2022-10-11T20:29:07.494Z,87.82
2022-10-11T20:31:40.819Z,88.77
2022-10-11T20:34:08.071Z,88.72
2022-10-11T20:36:36.396Z,87.99
2022-10-11T20:39:04.733Z,88.27
2022-10-11T20:41:36.972Z,88.46
2022-10-11T20:44:04.749Z,88.84
2022-10-11T20:46:33.851Z,88.52
2022-10-11T20:49:03.558Z,89.02
2022-10-11T20:51:32.394Z,88.57
2022-10-11T20:54:00.664Z,88.71
2022-10-11T20:56:28.536Z,89.47
2022-10-11T20:58:57.161Z,89.33
2022-10-11T21:01:32.633Z,89.61
2022-10-11T21:04:01.361Z,89.13
2022-10-11T21:06:29.596Z,89.44
2022-10-11T21:08:59.010Z,88.90
2022-10-11T21:11:31.289Z,89.33
2022-10-11T21:14:00.927Z,89.65
2022-10-11T21:16:28.500Z,89.52
2022-10-11T21:18:57.375Z,89.68
2022-10-11T21:21:25.367Z,89.41
2022-10-11T21:23:56.332Z,89.82
2022-10-11T21:26:23.876Z,89.70
2022-10-11T21:28:51.331Z,89.80
2022-10-11T21:31:20.604Z,90.15
2022-10-11T21:33:48.117Z,89.69
2022-10-11T21:36:20.529Z,89.61
2022-10-11T21:38:48.451Z,89.74
2022-10-11T21:41:21.831Z,89.29
2022-10-11T21:43:49.401Z,89.21
2022-10-11T21:46:20.934Z,89.42
2022-10-11T21:48:50.106Z,89.26
2022-10-11T21:51:29.765Z,89.57
2022-10-11T21:53:59.670Z,89.51
2022-10-11T21:56:30.432Z,89.64
2022-10-11T21:58:57.531Z,90.06
2022-10-11T22:01:24.802Z,89.89
2022-10-11T22:03:53.565Z,90.00
2022-10-11T22:06:21.555Z,89.88
2022-10-11T22:08:50.096Z,90.10
2022-10-11T22:11:17.630Z,89.93
2022-10-11T22:13:44.912Z,89.94
2022-10-11T22:16:13.306Z,89.76
2022-10-11T22:18:41.486Z,89.73
2022-10-11T22:21:14.652Z,89.33
2022-10-11T22:23:43.918Z,89.52
2022-10-11T22:26:16.790Z,89.88
2022-10-11T22:28:46.506Z,89.29
2022-10-11T22:31:14.884Z,89.30
2022-10-11T22:33:42.267Z,88.60
2022-10-11T22:36:12.058Z,88.97
2022-10-11T22:38:42.940Z,88.75
2022-10-11T22:41:10.515Z,87.94
2022-10-11T22:43:37.956Z,88.28
2022-10-11T22:46:05.730Z,88.20
2022-10-11T22:48:32.768Z,88.80
2022-10-11T22:51:00.199Z,88.22
2022-10-11T22:53:27.273Z,87.72
2022-10-11T22:55:54.387Z,87.78
2022-10-11T22:58:21.223Z,87.77
2022-10-11T23:00:48.104Z,87.85
2022-10-11T23:03:16.906Z,87.91
2022-10-11T23:05:43.978Z,88.21
2022-10-11T23:08:12.001Z,88.06
2022-10-11T23:10:40.134Z,88.74
2022-10-11T23:13:07.246Z,88.14
2022-10-11T23:15:34.145Z,88.73
2022-10-11T23:18:01.011Z,88.57
2022-10-11T23:20:27.981Z,88.38
2022-10-11T23:22:54.935Z,88.01
2022-10-11T23:25:21.786Z,88.46
2022-10-11T23:27:48.666Z,88.25
2022-10-11T23:30:15.863Z,88.53
2022-10-11T23:32:42.823Z,88.20
2022-10-11T23:35:10.002Z,88.04
2022-10-11T23:37:37.274Z,88.18
2022-10-11T23:40:04.944Z,88.23
2022-10-11T23:42:32.019Z,88.25
2022-10-11T23:44:59.357Z,88.70
2022-10-11T23:47:26.251Z,88.94
2022-10-11T23:49:53.323Z,88.74
2022-10-11T23:52:20.271Z,88.50
2022-10-11T23:54:47.313Z,88.38
2022-10-11T23:57:14.553Z,88.96
2022-10-11T23:59:41.646Z,88.75
